Time;durP1;ratioP1;P1;durP2;ratioP2;P2;SDS_P1;SDS_P2;PMS_P1;PMS_P2;Temp;Humidity;BMP_temperature;BMP_pressure;BME280_temperature;BME280_humidity;BME280_pressure;Samples;Min_cycle;Max_cycle;Signal;HPM_P1;HPM_P2
2022/09/09 00:00:31;;;;;;;7.37;0.90;;;;;;;20.17;60.48;99504.63;7580837;33;40099;-75
2022/09/09 00:05:01;;;;;;;1.67;0.80;;;;;;;20.26;61.39;99503.38;7579963;33;37988;-75
2022/09/09 00:09:18;;;;;;;1.25;0.90;;;;;;;20.31;60.77;99504.28;7580609;33;38143;-75
2022/09/09 00:13:45;;;;;;;1.30;0.93;;;;;;;20.27;60.41;99496.66;7580451;33;40266;-75
2022/09/09 00:18:17;;;;;;;0.90;0.80;;;;;;;20.13;60.88;99495.38;7580643;33;39999;-76
2022/09/09 00:22:33;;;;;;;2.33;0.88;;;;;;;20.28;61.45;99494.69;7580607;33;37833;-76
2022/09/09 00:26:53;;;;;;;2.03;0.88;;;;;;;20.02;62.42;99486.72;7580454;33;37932;-75
2022/09/09 00:31:18;;;;;;;2.95;1.10;;;;;;;20.10;61.57;99487.78;7580601;33;39125;-75
2022/09/09 00:35:44;;;;;;;0.90;0.90;;;;;;;19.92;62.60;99499.03;7579994;33;39961;-75
2022/09/09 00:40:06;;;;;;;1.35;0.75;;;;;;;19.98;62.46;99485.78;7567533;33;38066;-75
2022/09/09 00:44:36;;;;;;;1.48;1.10;;;;;;;19.78;62.25;99484.69;7567070;33;37169;-75
2022/09/09 00:49:33;;;;;;;1.62;0.88;;;;;;;19.82;62.20;99500.25;7567810;33;39341;-75
2022/09/09 00:54:21;;;;;;;2.47;0.82;;;;;;;19.75;61.87;99501.94;7580132;33;39702;-76
2022/09/09 00:58:37;;;;;;;3.37;0.90;;;;;;;19.81;61.42;99498.63;7578212;33;38017;-76
2022/09/09 01:03:17;;;;;;;4.00;1.00;;;;;;;19.73;61.71;99501.47;7579653;33;37404;-75
2022/09/09 01:07:34;;;;;;;2.47;0.90;;;;;;;19.59;61.95;99510.03;7580274;33;39124;-76
2022/09/09 01:12:02;;;;;;;2.30;0.77;;;;;;;19.71;62.01;99515.63;7579756;33;40737;-76
2022/09/09 01:16:19;;;;;;;1.10;0.80;;;;;;;19.66;62.04;99524.12;7579946;33;37210;-76
2022/09/09 01:21:12;;;;;;;1.92;0.85;;;;;;;19.96;60.96;99537.88;7579937;33;36767;-75
2022/09/09 01:25:43;;;;;;;2.15;1.20;;;;;;;19.97;61.18;99545.84;7579754;33;39388;-76
2022/09/09 01:29:59;;;;;;;0.93;0.93;;;;;;;19.67;61.72;99542.34;7579677;33;40873;-75
2022/09/09 01:34:16;;;;;;;1.48;1.02;;;;;;;19.55;62.47;99534.00;7578916;33;38849;-75
2022/09/09 01:38:32;;;;;;;1.77;0.90;;;;;;;19.69;61.35;99529.78;7579346;33;35529;-76
2022/09/09 01:42:48;;;;;;;1.10;1.00;;;;;;;19.76;61.08;99529.28;7578726;33;40348;-76
2022/09/09 01:47:06;;;;;;;0.93;0.93;;;;;;;19.52;62.29;99546.53;7565594;33;40018;-76
2022/09/09 01:51:22;;;;;;;1.90;0.80;;;;;;;19.53;62.33;99537.09;7579238;33;38028;-76
2022/09/09 01:55:40;;;;;;;0.93;0.93;;;;;;;19.54;62.45;99543.44;7577879;33;37186;-76
2022/09/09 02:00:14;;;;;;;1.20;0.90;;;;;;;19.33;62.92;99541.47;7578989;33;40239;-76
2022/09/09 02:04:39;;;;;;;1.20;1.10;;;;;;;19.44;62.43;99547.44;7578709;33;40356;-76
2022/09/09 02:09:00;;;;;;;0.80;0.80;;;;;;;19.39;62.60;99553.16;7578806;33;37864;-75
2022/09/09 02:13:19;;;;;;;2.35;0.98;;;;;;;19.43;62.46;99549.38;7565487;33;36159;-75
2022/09/09 02:17:38;;;;;;;1.42;1.00;;;;;;;19.30;62.96;99551.25;7565674;33;40068;-75
2022/09/09 02:21:59;;;;;;;3.85;1.15;;;;;;;19.38;62.63;99551.53;7578029;33;39863;-75
2022/09/09 02:26:20;;;;;;;1.30;1.10;;;;;;;19.35;62.85;99547.50;7565120;33;39378;-75
2022/09/09 02:30:37;;;;;;;5.87;1.40;;;;;;;19.24;63.23;99549.03;7565665;33;37280;-76
2022/09/09 02:34:57;;;;;;;2.65;1.30;;;;;;;19.16;63.80;99544.37;7564803;33;39823;-75
2022/09/09 02:39:13;;;;;;;3.53;1.23;;;;;;;19.18;63.52;99555.88;7565230;33;39752;-76
2022/09/09 02:43:34;;;;;;;1.67;1.20;;;;;;;19.02;64.03;99555.66;7577625;33;38707;-75
2022/09/09 02:47:59;;;;;;;2.83;1.37;;;;;;;19.07;63.89;99556.28;7577857;33;37030;-76
2022/09/09 02:52:20;;;;;;;2.50;1.52;;;;;;;18.94;64.34;99571.16;7564716;33;39091;-75
2022/09/09 02:56:41;;;;;;;6.65;1.52;;;;;;;19.00;63.79;99560.72;7577685;33;39990;-75
2022/09/09 03:00:58;;;;;;;1.62;1.20;;;;;;;18.78;64.66;99562.56;7564810;33;36416;-75
2022/09/09 03:05:14;;;;;;;1.25;1.15;;;;;;;18.89;63.95;99557.53;7576400;33;37089;-75
2022/09/09 03:09:32;;;;;;;1.83;1.40;;;;;;;18.84;64.19;99554.97;7581081;33;38375;-76
2022/09/09 03:13:49;;;;;;;2.22;1.35;;;;;;;18.72;64.48;99553.69;7581152;33;39839;-75
2022/09/09 03:18:05;;;;;;;4.37;1.40;;;;;;;18.49;65.24;99539.34;7581487;33;37771;-75
2022/09/09 03:22:21;;;;;;;2.92;1.30;;;;;;;18.67;64.65;99545.56;7581083;33;36731;-75
2022/09/09 03:26:37;;;;;;;3.53;1.60;;;;;;;18.70;64.74;99544.13;7581270;33;39791;-76
2022/09/09 03:30:57;;;;;;;6.07;1.70;;;;;;;18.16;66.99;99544.63;7580867;33;39757;-75
2022/09/09 03:35:13;;;;;;;2.72;1.83;;;;;;;18.60;65.32;99542.53;7568250;33;38414;-75
2022/09/09 03:39:29;;;;;;;1.83;1.35;;;;;;;18.47;65.75;99549.91;7581067;33;37125;-75
2022/09/09 03:43:45;;;;;;;2.05;1.67;;;;;;;18.44;66.04;99564.34;7580566;33;40239;-75
2022/09/09 03:48:02;;;;;;;2.10;1.50;;;;;;;18.39;66.13;99562.56;7580748;33;40002;-76
2022/09/09 03:52:18;;;;;;;1.75;1.30;;;;;;;18.39;66.48;99556.25;7580793;33;38152;-75
2022/09/09 03:56:41;;;;;;;1.35;1.25;;;;;;;18.19;67.12;99566.03;7580741;33;38097;-76
2022/09/09 04:01:03;;;;;;;1.60;1.50;;;;;;;18.31;67.12;99565.38;7580918;33;38308;-77
2022/09/09 04:05:19;;;;;;;2.80;1.60;;;;;;;18.45;67.77;99565.97;7569111;32;39858;-74
2022/09/09 04:09:35;;;;;;;1.65;1.45;;;;;;;18.46;66.83;99562.06;7579833;33;38457;-76
2022/09/09 04:13:51;;;;;;;1.60;1.50;;;;;;;18.50;66.66;99573.25;7580336;33;36742;-74
2022/09/09 04:18:08;;;;;;;4.53;1.73;;;;;;;18.50;66.67;99568.53;7604246;32;40960;-75
2022/09/09 04:22:24;;;;;;;2.50;1.80;;;;;;;18.63;66.04;99577.75;7554818;33;39951;-73
2022/09/09 04:26:40;;;;;;;3.60;1.77;;;;;;;18.45;66.71;99578.97;7554754;33;37906;-75
2022/09/09 04:30:56;;;;;;;1.50;1.40;;;;;;;18.61;66.17;99582.81;7561976;32;37011;-74
2022/09/09 04:35:13;;;;;;;2.58;1.60;;;;;;;18.66;65.85;99581.78;7606196;32;39400;-75
2022/09/09 04:39:29;;;;;;;2.30;1.67;;;;;;;18.73;65.75;99577.41;7606574;32;39919;-76
2022/09/09 04:43:45;;;;;;;1.65;1.50;;;;;;;18.65;66.01;99586.53;7606163;32;37914;-74
2022/09/09 04:48:02;;;;;;;1.60;1.50;;;;;;;18.67;65.95;99575.94;7606138;32;37070;-75
2022/09/09 04:52:18;;;;;;;3.28;1.62;;;;;;;18.64;65.82;99573.03;7606192;32;39386;-75
2022/09/09 04:56:34;;;;;;;1.60;1.45;;;;;;;18.77;65.36;99575.59;7579686;32;39982;-76
2022/09/09 05:00:51;;;;;;;2.22;1.37;;;;;;;18.66;65.64;99576.28;7590178;32;38750;-75
2022/09/09 05:05:07;;;;;;;4.85;1.70;;;;;;;18.73;65.40;99562.75;7581360;32;37070;-75
2022/09/09 05:09:23;;;;;;;3.55;1.80;;;;;;;18.83;65.13;99572.66;7579600;33;40154;-75
2022/09/09 05:13:40;;;;;;;4.82;1.70;;;;;;;18.76;65.26;99576.75;7578789;32;40064;-74
2022/09/09 05:18:00;;;;;;;1.65;1.45;;;;;;;18.99;64.63;99582.03;7576944;32;37895;-75
2022/09/09 05:22:20;;;;;;;1.80;1.70;;;;;;;18.99;64.80;99589.47;7605683;32;37987;-74
2022/09/09 05:26:36;;;;;;;2.28;1.70;;;;;;;19.05;64.61;99586.19;7590902;32;39611;-75
2022/09/09 05:31:00;;;;;;;1.50;1.40;;;;;;;19.31;63.95;99596.28;7578875;32;40044;-74
2022/09/09 05:35:18;;;;;;;5.28;1.85;;;;;;;19.28;64.25;99591.41;7578604;33;38690;-73
2022/09/09 05:39:36;;;;;;;2.53;1.83;;;;;;;19.39;63.76;99581.59;7565449;33;37093;-74
2022/09/09 05:43:52;;;;;;;1.92;1.70;;;;;;;19.49;63.76;99581.19;7579297;33;39294;-74
2022/09/09 05:48:08;;;;;;;2.33;1.85;;;;;;;19.50;63.69;99584.78;7578610;33;40872;-74
2022/09/09 05:52:26;;;;;;;2.60;1.90;;;;;;;19.58;63.29;99577.56;7578536;33;38099;-74
2022/09/09 05:56:42;;;;;;;2.03;1.60;;;;;;;19.38;63.70;99581.94;7576524;33;36977;-75
2022/09/09 06:01:06;;;;;;;2.58;1.80;;;;;;;19.49;63.86;99583.97;7597061;32;40257;-74
2022/09/09 06:05:23;;;;;;;8.70;2.10;;;;;;;19.38;64.34;99579.97;7584471;32;40841;-74
2022/09/09 06:09:39;;;;;;;3.62;1.98;;;;;;;19.50;64.59;99587.53;7578784;33;39063;-72
2022/09/09 06:13:55;;;;;;;3.05;1.98;;;;;;;19.72;63.41;99577.28;7578699;33;37186;-75
2022/09/09 06:18:12;;;;;;;2.03;1.80;;;;;;;20.12;62.47;99569.28;7589188;32;39288;-75
2022/09/09 06:22:28;;;;;;;4.07;2.20;;;;;;;20.02;62.50;99583.53;7568901;33;40032;-76
2022/09/09 06:26:45;;;;;;;3.67;1.95;;;;;;;19.91;62.37;99577.62;7574773;33;37985;-74
2022/09/09 06:31:03;;;;;;;2.55;1.90;;;;;;;19.45;63.72;99585.75;7552734;33;36794;-74
2022/09/09 06:35:20;;;;;;;4.75;1.83;;;;;;;19.50;63.64;99588.34;7552574;33;39321;-75
2022/09/09 06:39:35;;;;;;;2.40;1.95;;;;;;;19.94;62.88;99590.78;7559127;33;40738;-75
2022/09/09 06:43:52;;;;;;;2.55;1.80;;;;;;;19.86;62.09;99600.75;7579884;33;38906;-74
2022/09/09 06:48:08;;;;;;;2.92;2.08;;;;;;;20.17;62.07;99587.63;7581213;32;37974;-72
2022/09/09 06:52:25;;;;;;;1.77;1.60;;;;;;;20.10;60.92;99588.19;7581169;33;39441;-74
2022/09/09 06:56:42;;;;;;;5.22;1.77;;;;;;;19.89;62.42;99586.25;7581395;32;40616;-74
2022/09/09 07:01:04;;;;;;;5.22;1.95;;;;;;;20.13;62.58;99589.44;7581304;33;38711;-74
2022/09/09 07:05:21;;;;;;;2.58;2.00;;;;;;;20.34;61.58;99603.25;7581475;33;36895;-74
2022/09/09 07:09:37;;;;;;;2.67;1.60;;;;;;;20.43;62.06;99604.75;7581321;33;39536;-74
2022/09/09 07:13:53;;;;;;;4.90;2.35;;;;;;;20.00;62.95;99607.97;7581308;33;40232;-74
2022/09/09 07:18:10;;;;;;;3.65;2.22;;;;;;;20.38;62.57;99599.44;7581091;33;38040;-75
2022/09/09 07:22:27;;;;;;;2.12;1.87;;;;;;;20.67;60.41;99599.66;7581065;33;37027;-75
2022/09/09 07:26:43;;;;;;;2.78;1.60;;;;;;;19.63;62.98;99596.72;7581026;33;39789;-74
2022/09/09 07:31:02;;;;;;;2.65;1.90;;;;;;;20.14;61.14;99607.69;7580925;33;40043;-75
2022/09/09 07:35:18;;;;;;;2.65;1.98;;;;;;;19.78;63.29;99612.75;7580964;33;37849;-74
2022/09/09 07:39:34;;;;;;;2.70;1.83;;;;;;;20.41;61.45;99604.31;7567415;33;37286;-74
2022/09/09 07:43:51;;;;;;;2.17;1.65;;;;;;;21.17;60.09;99601.28;7580953;33;39364;-74
2022/09/09 07:48:08;;;;;;;2.37;1.70;;;;;;;21.15;59.05;99598.84;7580749;33;39762;-74
2022/09/09 07:52:24;;;;;;;2.58;1.65;;;;;;;21.19;58.47;99596.19;7580666;32;37917;-74
2022/09/09 07:56:42;;;;;;;2.65;1.80;;;;;;;20.80;59.01;99606.84;7580719;33;37674;-74
2022/09/09 08:00:58;;;;;;;2.87;1.73;;;;;;;20.94;60.04;99614.81;7580792;33;40091;-74
2022/09/09 08:05:14;;;;;;;2.12;1.77;;;;;;;21.48;59.60;99610.97;7580692;33;40037;-75
2022/09/09 08:09:32;;;;;;;3.15;1.80;;;;;;;21.70;58.16;99613.25;7580163;33;38871;-73
2022/09/09 08:13:48;;;;;;;2.25;1.65;;;;;;;21.93;57.35;99618.25;7580312;33;38017;-74
2022/09/09 08:18:09;;;;;;;1.60;1.50;;;;;;;21.71;56.31;99614.88;7580610;33;39202;-73
2022/09/09 08:22:26;;;;;;;2.92;1.98;;;;;;;22.24;56.07;99619.50;7581410;32;40692;-74
2022/09/09 08:26:48;;;;;;;3.12;1.48;;;;;;;21.79;57.57;99613.09;7604098;32;38638;-77
2022/09/09 08:31:16;;;;;;;1.83;1.13;;;;;;;22.44;55.44;99604.63;7578578;33;37081;-75
2022/09/09 08:35:32;;;;;;;4.70;1.48;;;;;;;22.15;55.94;99610.53;7555919;33;39309;-76
2022/09/09 08:39:48;;;;;;;2.92;1.60;;;;;;;21.71;58.10;99595.44;7581861;32;40119;-75
2022/09/09 08:44:30;;;;;;;2.65;1.58;;;;;;;22.45;55.11;99589.56;7588102;32;37117;-75
2022/09/09 08:49:36;;;;;;;1.80;1.70;;;;;;;22.44;54.13;99596.28;7568121;33;37843;-75
2022/09/09 08:53:52;;;;;;;3.35;1.85;;;;;;;22.16;55.56;99606.59;7562706;33;39351;-70
2022/09/09 08:58:31;;;;;;;3.35;1.80;;;;;;;22.12;55.77;99589.84;7580141;33;39914;-73
2022/09/09 09:02:53;;;;;;;6.07;1.67;;;;;;;22.30;56.63;99595.91;7568107;33;37575;-75
2022/09/09 09:07:34;;;;;;;2.67;1.52;;;;;;;22.67;54.30;99601.25;7579441;33;37772;-73
2022/09/09 09:11:54;;;;;;;1.62;1.50;;;;;;;22.65;53.76;99584.94;7580020;33;40142;-73
2022/09/09 09:16:23;;;;;;;2.03;1.37;;;;;;;22.96;52.09;99588.06;7579862;33;40016;-74
2022/09/09 09:20:58;;;;;;;1.75;1.58;;;;;;;23.24;51.00;99588.75;7567535;33;38564;-74
2022/09/09 09:25:34;;;;;;;2.60;1.58;;;;;;;23.46;51.06;99583.69;7579852;33;37684;-73
2022/09/09 09:29:50;;;;;;;1.65;1.42;;;;;;;23.81;50.21;99589.22;7579787;33;40030;-73
2022/09/09 09:34:26;;;;;;;3.15;1.60;;;;;;;23.46;50.55;99577.28;7579142;33;40285;-74
2022/09/09 09:38:55;;;;;;;3.05;1.30;;;;;;;24.33;49.77;99575.09;7566092;33;38749;-75
2022/09/09 09:43:32;;;;;;;1.83;1.30;;;;;;;24.57;48.13;99568.38;7579070;33;37544;-74
2022/09/09 09:47:58;;;;;;;1.42;1.20;;;;;;;24.96;48.17;99551.50;7578482;33;39313;-74
2022/09/09 09:52:25;;;;;;;4.60;1.50;;;;;;;25.14;45.55;99560.13;7578841;33;39935;-74
2022/09/09 09:56:42;;;;;;;2.08;1.00;;;;;;;25.67;44.88;99557.28;7565932;33;38656;-75
2022/09/09 10:00:59;;;;;;;1.40;1.30;;;;;;;25.04;45.56;99547.66;7578553;33;37090;-74
2022/09/09 10:05:26;;;;;;;5.93;1.30;;;;;;;24.67;44.68;99556.63;7579035;33;39020;-74
2022/09/09 10:09:50;;;;;;;4.43;1.12;;;;;;;24.82;44.06;99554.03;7566557;33;39989;-74
2022/09/09 10:14:25;;;;;;;1.77;1.27;;;;;;;25.44;39.73;99554.59;7575880;33;38831;-74
2022/09/09 10:18:44;;;;;;;0.90;0.88;;;;;;;26.08;40.43;99559.41;7577232;33;36671;-74
2022/09/09 10:23:54;;;;;;;1.37;0.93;;;;;;;26.23;35.45;99557.53;7566293;33;39949;-75
2022/09/09 10:28:47;;;;;;;1.67;0.80;;;;;;;26.30;36.98;99546.47;7554978;33;40927;-75
2022/09/09 10:33:16;;;;;;;0.90;0.80;;;;;;;25.97;36.12;99547.28;7581851;33;37901;-75
2022/09/09 10:37:52;;;;;;;1.65;0.82;;;;;;;26.45;36.72;99543.78;7556920;33;37962;-75
2022/09/09 10:42:14;;;;;;;0.90;0.80;;;;;;;26.61;36.05;99549.91;7581869;33;39267;-75
2022/09/09 10:46:30;;;;;;;2.10;0.73;;;;;;;26.15;36.47;99539.91;7568746;33;39877;-76
2022/09/09 10:50:56;;;;;;;2.40;0.90;;;;;;;26.54;36.61;99547.84;7581485;33;38178;-76
2022/09/09 10:55:20;;;;;;;0.60;0.50;;;;;;;26.96;34.98;99552.22;7581590;33;35661;-75
2022/09/09 10:59:43;;;;;;;1.33;0.60;;;;;;;26.35;31.88;99551.66;7568764;33;40238;-77
2022/09/09 11:04:11;;;;;;;1.00;0.70;;;;;;;26.85;32.17;99551.31;7568519;33;39862;-75
2022/09/09 11:08:29;;;;;;;1.35;1.10;;;;;;;26.64;33.72;99539.97;7569124;33;37980;-76
2022/09/09 11:12:47;;;;;;;1.15;0.88;;;;;;;26.39;35.05;99541.34;7556046;33;37285;-75
2022/09/09 11:17:26;;;;;;;0.75;0.75;;;;;;;27.18;34.53;99538.34;7581204;33;39136;-76
2022/09/09 11:21:49;;;;;;;0.73;0.70;;;;;;;27.53;30.78;99539.78;7581206;33;40890;-76
2022/09/09 11:26:07;;;;;;;0.60;0.40;;;;;;;27.49;30.62;99550.97;7581060;33;37894;-77
2022/09/09 11:30:32;;;;;;;1.98;0.73;;;;;;;27.72;29.16;99547.06;7567778;33;36993;-76
2022/09/09 11:35:27;;;;;;;0.60;0.60;;;;;;;28.23;31.06;99546.00;7570759;33;39617;-75
2022/09/09 11:40:09;;;;;;;1.00;0.80;;;;;;;28.97;28.95;99534.44;7580780;33;39962;-76
2022/09/09 11:44:30;;;;;;;1.75;0.68;;;;;;;29.29;27.20;99539.22;7566497;33;37738;-76
2022/09/09 11:49:02;;;;;;;0.40;0.40;;;;;;;28.89;26.72;99528.06;7567377;33;36981;-76
2022/09/09 11:53:22;;;;;;;0.70;0.70;;;;;;;27.89;29.26;99537.13;7580781;33;39324;-76
2022/09/09 11:57:40;;;;;;;1.30;0.65;;;;;;;28.73;27.38;99522.84;7580575;33;40974;-75
2022/09/09 12:02:26;;;;;;;3.28;0.43;;;;;;;29.52;28.02;99503.03;7580589;33;37900;-76
2022/09/09 12:06:50;;;;;;;1.67;0.80;;;;;;;29.50;26.58;99505.44;7580706;33;37156;-76
2022/09/09 12:11:06;;;;;;;0.73;0.40;;;;;;;30.40;26.27;99496.53;7580988;33;38482;-76
2022/09/09 12:15:28;;;;;;;0.52;0.52;;;;;;;29.70;23.47;99500.16;7580438;33;39993;-76
2022/09/09 12:19:45;;;;;;;1.35;0.50;;;;;;;30.20;23.94;99501.88;7580442;33;37966;-75
2022/09/09 12:24:16;;;;;;;1.48;0.70;;;;;;;30.17;24.70;99497.06;7567409;33;36772;-75
2022/09/09 12:29:07;;;;;;;1.00;0.62;;;;;;;30.00;25.30;99493.16;7568218;33;40056;-76
2022/09/09 12:33:23;;;;;;;1.00;0.57;;;;;;;29.91;25.82;99485.19;7580474;33;41181;-76
2022/09/09 12:37:49;;;;;;;0.55;0.55;;;;;;;29.89;26.31;99487.62;7580294;33;38095;-75
2022/09/09 12:42:15;;;;;;;0.47;0.47;;;;;;;30.51;25.49;99482.34;7578331;33;37179;-75
2022/09/09 12:46:42;;;;;;;1.08;0.70;;;;;;;30.50;24.45;99470.31;7577200;33;39929;-76
2022/09/09 12:50:59;;;;;;;0.45;0.45;;;;;;;30.10;25.12;99471.84;7564381;33;39734;-75
2022/09/09 12:55:30;;;;;;;3.65;0.40;;;;;;;29.68;25.70;99482.09;7576821;33;38258;-76
2022/09/09 12:59:47;;;;;;;1.85;0.43;;;;;;;29.52;23.33;99479.75;7579785;33;37079;-75
2022/09/09 13:04:19;;;;;;;2.97;0.65;;;;;;;29.61;24.41;99471.69;7580696;33;39353;-75
2022/09/09 13:08:35;;;;;;;3.10;0.68;;;;;;;29.63;23.08;99457.25;7580197;33;39673;-75
2022/09/09 13:12:51;;;;;;;1.65;0.75;;;;;;;29.95;25.54;99460.69;7580044;33;37829;-76
2022/09/09 13:17:17;;;;;;;0.75;0.50;;;;;;;29.23;24.52;99454.63;7579990;33;36852;-76
2022/09/09 13:21:38;;;;;;;0.70;0.50;;;;;;;29.84;23.24;99443.09;7567836;33;39712;-75
2022/09/09 13:26:00;;;;;;;2.03;0.55;;;;;;;29.31;24.34;99442.16;7579789;33;40127;-76
2022/09/09 13:30:32;;;;;;;2.12;0.65;;;;;;;29.55;23.36;99437.63;7579463;33;37969;-75
2022/09/09 13:34:53;;;;;;;0.50;0.50;;;;;;;28.28;25.69;99429.91;7579771;33;37771;-77
2022/09/09 13:39:18;;;;;;;1.85;0.60;;;;;;;28.42;26.18;99429.09;7580027;33;39841;-77
2022/09/09 13:43:42;;;;;;;2.60;0.60;;;;;;;28.10;26.62;99433.53;7566854;33;40860;-76
2022/09/09 13:48:08;;;;;;;0.50;0.50;;;;;;;28.29;26.56;99429.50;7579540;33;36086;-77
2022/09/09 13:52:26;;;;;;;0.73;0.60;;;;;;;28.20;27.27;99429.13;7565856;33;37088;-76
2022/09/09 13:56:43;;;;;;;0.43;0.43;;;;;;;28.32;28.44;99427.94;7576015;33;40095;-74
2022/09/09 14:00:59;;;;;;;0.50;0.50;;;;;;;28.52;28.15;99425.50;7575502;33;40637;-76
2022/09/09 14:05:16;;;;;;;0.55;0.55;;;;;;;28.06;29.01;99426.31;7578930;33;38611;-75
2022/09/09 14:09:32;;;;;;;1.02;0.80;;;;;;;28.80;28.70;99415.44;7578938;33;37459;-77
2022/09/09 14:13:51;;;;;;;2.60;0.80;;;;;;;29.00;28.13;99413.00;7575672;33;39457;-77
2022/09/09 14:18:13;;;;;;;2.05;0.60;;;;;;;28.98;27.49;99407.00;7576966;33;41133;-78
2022/09/09 14:22:29;;;;;;;0.87;0.60;;;;;;;28.99;25.72;99400.16;7577944;33;38521;-77
2022/09/09 14:26:45;;;;;;;0.88;0.60;;;;;;;29.59;25.99;99390.66;7578002;33;37671;-78
2022/09/09 14:31:03;;;;;;;1.20;0.73;;;;;;;29.69;25.97;99391.00;7578142;33;39748;-78
2022/09/09 14:35:19;;;;;;;2.45;0.60;;;;;;;30.00;24.71;99379.97;7577553;33;41986;-78
2022/09/09 14:39:35;;;;;;;0.70;0.70;;;;;;;30.48;24.54;99374.31;7564815;33;37756;-78
2022/09/09 14:43:52;;;;;;;0.95;0.82;;;;;;;30.34;23.79;99382.88;7577625;33;36844;-77
2022/09/09 14:48:08;;;;;;;3.08;0.57;;;;;;;30.17;26.43;99383.81;7577317;33;40165;-77
2022/09/09 14:52:25;;;;;;;1.02;0.70;;;;;;;30.44;26.99;99362.34;7577488;33;39890;-78
2022/09/09 14:56:41;;;;;;;3.70;0.57;;;;;;;30.22;26.75;99360.87;7577080;33;37951;-79
2022/09/09 15:01:06;;;;;;;3.75;0.88;;;;;;;30.17;26.41;99361.34;7576866;33;37965;-78
2022/09/09 15:05:24;;;;;;;3.83;0.80;;;;;;;30.25;28.05;99365.69;7580149;33;39285;-77
2022/09/09 15:09:40;;;;;;;4.87;0.88;;;;;;;30.36;27.48;99379.69;7581322;33;39916;-78
2022/09/09 15:13:56;;;;;;;1.70;0.82;;;;;;;30.21;27.41;99374.16;7581211;33;37914;-77
2022/09/09 15:18:13;;;;;;;2.15;0.52;;;;;;;30.23;25.81;99374.53;7581253;33;37056;-77
2022/09/09 15:22:29;;;;;;;1.42;0.60;;;;;;;30.31;24.57;99390.13;7581818;33;39066;-78
2022/09/09 15:26:46;;;;;;;0.60;0.60;;;;;;;30.52;26.78;99396.78;7581232;33;40653;-74
2022/09/09 15:31:06;;;;;;;1.00;0.70;;;;;;;30.70;26.45;99400.22;7580869;33;38094;-73
2022/09/09 15:35:22;;;;;;;1.00;0.70;;;;;;;30.60;26.45;99395.50;7581028;33;38047;-75
2022/09/09 15:39:38;;;;;;;2.58;0.70;;;;;;;30.31;26.14;99398.56;7580481;33;39296;-74
2022/09/09 15:44:00;;;;;;;1.80;0.45;;;;;;;30.15;27.44;99387.88;7580870;33;39900;-75
2022/09/09 15:48:16;;;;;;;1.73;0.50;;;;;;;30.23;28.10;99377.34;7568035;33;37883;-75
2022/09/09 15:52:33;;;;;;;1.23;0.75;;;;;;;29.99;27.67;99375.56;7580789;33;37785;-76
2022/09/09 15:56:52;;;;;;;0.45;0.43;;;;;;;29.77;29.28;99379.34;7580758;33;39271;-77
2022/09/09 16:01:11;;;;;;;1.20;0.65;;;;;;;29.50;28.58;99398.75;7580736;33;40646;-77
2022/09/09 16:05:27;;;;;;;0.90;0.37;;;;;;;29.27;31.13;99392.84;7567700;33;36513;-77
2022/09/09 16:09:43;;;;;;;1.85;0.88;;;;;;;28.98;31.35;99399.37;7580612;33;37899;-77
2022/09/09 16:13:59;;;;;;;0.70;0.65;;;;;;;28.62;33.49;99395.88;7579410;33;39993;-75
2022/09/09 16:18:15;;;;;;;0.60;0.60;;;;;;;28.38;33.29;99403.88;7580402;33;40625;-75
2022/09/09 16:22:32;;;;;;;0.50;0.50;;;;;;;28.29;32.95;99409.09;7580314;33;38093;-76
2022/09/09 16:26:52;;;;;;;2.53;0.70;;;;;;;28.01;33.80;99421.09;7580229;33;37144;-76
2022/09/09 16:31:11;;;;;;;2.80;0.62;;;;;;;27.84;34.86;99411.47;7580691;33;38932;-76
2022/09/09 16:35:27;;;;;;;0.70;0.70;;;;;;;27.81;34.84;99404.66;7567139;33;40314;-76
2022/09/09 16:39:42;;;;;;;0.75;0.75;;;;;;;27.55;35.31;99405.81;7573225;33;38819;-77
2022/09/09 16:44:04;;;;;;;5.05;1.02;;;;;;;27.37;36.02;99407.75;7566560;33;37198;-77
2022/09/09 16:48:20;;;;;;;3.83;1.10;;;;;;;27.28;35.71;99411.72;7577045;33;39295;-76
2022/09/09 16:52:36;;;;;;;1.02;0.90;;;;;;;27.09;36.01;99406.44;7580170;33;41632;-74
2022/09/09 16:56:53;;;;;;;4.12;0.77;;;;;;;27.01;36.03;99413.19;7579917;33;37563;-74
2022/09/09 17:01:14;;;;;;;2.20;0.80;;;;;;;26.96;36.08;99417.97;7580064;33;36972;-75
2022/09/09 17:05:30;;;;;;;6.60;2.35;;;;;;;26.93;34.73;99427.13;7580142;33;40039;-79
2022/09/09 17:09:46;;;;;;;7.97;1.85;;;;;;;26.76;37.19;99434.22;7579937;33;39903;-79
2022/09/09 17:14:03;;;;;;;4.18;1.10;;;;;;;26.53;38.14;99428.87;7579823;33;38046;-75
2022/09/09 17:18:20;;;;;;;2.35;1.17;;;;;;;26.36;39.10;99415.56;7579785;33;37104;-75
2022/09/09 17:22:36;;;;;;;5.57;1.00;;;;;;;26.11;39.24;99413.34;7579823;33;40110;-75
2022/09/09 17:26:52;;;;;;;8.35;1.30;;;;;;;26.10;39.24;99419.34;7579040;33;40076;-75
2022/09/09 17:31:10;;;;;;;1.05;0.73;;;;;;;25.91;39.99;99418.34;7579596;33;38755;-76
2022/09/09 17:35:27;;;;;;;2.08;1.10;;;;;;;25.84;39.45;99416.28;7579057;33;37191;-77
2022/09/09 17:39:43;;;;;;;0.82;0.82;;;;;;;25.66;39.70;99437.63;7579028;33;40015;-75
2022/09/09 17:44:00;;;;;;;3.05;1.20;;;;;;;25.42;41.48;99437.00;7566300;33;39982;-76
2022/09/09 17:48:16;;;;;;;0.82;0.80;;;;;;;25.52;39.78;99443.88;7578906;33;38467;-75
2022/09/09 17:52:34;;;;;;;3.37;1.25;;;;;;;25.49;39.59;99447.41;7577918;33;37199;-74
2022/09/09 17:56:52;;;;;;;2.33;0.90;;;;;;;25.34;40.76;99445.66;7574677;33;41524;-77
2022/09/09 18:01:13;;;;;;;2.78;1.00;;;;;;;25.23;41.17;99449.09;7578614;33;39884;-75
2022/09/09 18:05:30;;;;;;;2.33;1.00;;;;;;;25.28;41.74;99456.34;7578643;33;38290;-77
2022/09/09 18:09:46;;;;;;;2.90;1.27;;;;;;;25.03;43.28;99470.72;7578612;33;37032;-75
2022/09/09 18:14:03;;;;;;;2.33;1.12;;;;;;;24.96;43.81;99470.66;7578824;33;40235;-77
2022/09/09 18:18:20;;;;;;;2.90;0.90;;;;;;;24.76;44.24;99464.38;7578648;33;39915;-75
2022/09/09 18:22:36;;;;;;;1.70;0.90;;;;;;;24.59;44.69;99479.62;7577888;33;38702;-74
2022/09/09 18:26:53;;;;;;;3.95;1.20;;;;;;;24.40;45.61;99468.56;7599099;32;35776;-75
2022/09/09 18:31:13;;;;;;;1.52;0.70;;;;;;;24.54;44.23;99469.63;7581323;32;39211;-75
2022/09/09 18:35:29;;;;;;;2.58;1.20;;;;;;;24.40;44.59;99463.00;7603023;32;39980;-76
2022/09/09 18:39:46;;;;;;;1.87;1.08;;;;;;;24.34;45.49;99466.09;7580813;33;37944;-75
2022/09/09 18:44:09;;;;;;;1.25;0.90;;;;;;;24.37;45.53;99457.00;7581610;33;37979;-73
2022/09/09 18:48:25;;;;;;;;;;;;;;;24.45;45.56;99451.53;7586367;32;39548;-75
2022/09/09 18:52:41;;;;;;;1.17;0.90;;;;;;;24.38;44.67;99444.66;7607565;32;40051;-74
2022/09/09 18:56:59;;;;;;;3.10;0.90;;;;;;;24.20;44.99;99454.72;7607238;32;38792;-75
2022/09/09 19:01:15;;;;;;;2.22;1.12;;;;;;;24.31;45.26;99466.03;7593839;32;36862;-76
2022/09/09 19:05:31;;;;;;;3.03;0.80;;;;;;;23.71;45.76;99458.97;7594274;32;39968;-74
2022/09/09 19:09:48;;;;;;;1.20;0.93;;;;;;;23.68;47.18;99456.12;7605291;32;41067;-73
2022/09/09 19:14:09;;;;;;;2.45;1.00;;;;;;;23.79;46.31;99462.72;7581059;33;37856;-74
2022/09/09 19:18:26;;;;;;;3.95;0.90;;;;;;;23.74;46.08;99460.22;7586939;32;36987;-75
2022/09/09 19:22:42;;;;;;;4.22;1.00;;;;;;;23.80;45.08;99451.22;7599716;32;39290;-75
2022/09/09 19:27:00;;;;;;;4.60;1.00;;;;;;;23.92;43.84;99452.22;7580940;33;39983;-76
2022/09/09 19:31:18;;;;;;;3.90;1.20;;;;;;;23.91;43.78;99451.44;7590438;32;37062;-75
2022/09/09 19:35:34;;;;;;;3.28;0.90;;;;;;;23.89;44.35;99455.78;7580947;32;37218;-75
2022/09/09 19:39:50;;;;;;;4.45;1.15;;;;;;;23.91;43.84;99470.13;7582988;32;39643;-75
2022/09/09 19:44:10;;;;;;;4.68;1.23;;;;;;;23.75;44.28;99475.72;7602969;32;40013;-74
2022/09/09 19:48:30;;;;;;;3.78;1.17;;;;;;;23.71;44.30;99488.78;7580536;33;38714;-74
2022/09/09 19:52:47;;;;;;;1.73;0.80;;;;;;;23.43;45.09;99490.63;7572193;33;38060;-75
2022/09/09 19:57:03;;;;;;;3.28;1.00;;;;;;;23.57;44.38;99476.19;7588344;32;39247;-74
2022/09/09 20:01:28;;;;;;;2.53;1.10;;;;;;;23.50;43.75;99473.28;7598502;32;40000;-75
2022/09/09 20:05:44;;;;;;;4.97;1.40;;;;;;;23.38;43.69;99467.87;7580763;33;38744;-74
2022/09/09 20:10:00;;;;;;;3.92;1.00;;;;;;;23.54;43.08;99468.59;7580572;33;37093;-75
2022/09/09 20:14:17;;;;;;;4.85;1.10;;;;;;;23.45;43.29;99465.22;7580729;33;39481;-74
2022/09/09 20:18:35;;;;;;;1.20;1.05;;;;;;;23.19;44.09;99475.03;7587924;32;40791;-74
2022/09/09 20:22:52;;;;;;;1.45;0.90;;;;;;;22.88;45.63;99471.12;7571334;32;37062;-73
2022/09/09 20:27:08;;;;;;;2.47;1.10;;;;;;;23.06;46.38;99479.91;7606549;32;37010;-75